Grandeur Of The Seas — C6SE3 — position and weather

sailwx.info

Track history (hours):
 
Tides and Currents Weather Stations Pressure Air Temp Water Temp Dewpoint Dewpoint Depression Visibility Wind Speed Wind Dir Waves Ship Positions

Grandeur Of The Seas

Operator: Royal Caribbean Cruises Ltd

Last reported at 2019-Feb-23 17:18 UTC. Time now 2019-Feb-23 18:04 UTC.
Position N 39°16' W 076°36'.

Type: Passenger vessel. MMSI: 311315000.

Date/timePositionNaut miles runAvg speedWind from/ knotsBaromVisibWave heightAir tempDewpointWater temp
2019-Feb-23 17:18N 39°16' W 076°36'0 0.0
2019-Feb-23 16:44N 39°16' W 076°36'0 0.0
2019-Feb-23 16:12N 39°16' W 076°36'0 0.0
2019-Feb-23 15:38N 39°16' W 076°36'0 0.0
2019-Feb-23 15:26N 39°16' W 076°36'0 0.0
2019-Feb-23 14:12N 39°16' W 076°36'0 0.0
2019-Feb-23 13:50N 39°16' W 076°36'0 0.0
2019-Feb-23 13:26N 39°16' W 076°36'0 0.0
2019-Feb-23 12:56N 39°16' W 076°36'0 0.0
2019-Feb-23 12:18N 39°16' W 076°36'0 0.0
2019-Feb-23 12:00N 39°16' W 076°36'4551.3
2019-Feb-23 12:00N 39°12' W 076°36'3 7.2 030 / 31034.4 4.0 1.7 9.0
2019-Feb-23 11:31N 39°15' W 076°35'3 6.7
2019-Feb-23 11:00N 39°13' W 076°32'5 9.5
2019-Feb-23 10:31N 39°11' W 076°27'611.2
2019-Feb-23 10:00N 39°06' W 076°24'713.7
2019-Feb-23 09:29N 38°59' W 076°23'816.6
2019-Feb-23 09:00N 38°51' W 076°24'9544.5
2019-Feb-23 09:00N 38°42' W 076°24'1818.0 060 / 111032.5 5.0 0.3 9.0
2019-Feb-23 08:00N 38°24' W 076°24'1610.4 040 / 81032.8 5.0 2.8 9.0
2019-Feb-23 06:27N 38°10' W 076°14'1737.3
2019-Feb-23 06:00N 37°54' W 076°06'9176.1 170 / 81033.4 5.0 2.810.0
2019-Feb-23 05:56N 38°02' W 076°13'1515.8
2019-Feb-23 05:01N 37°47' W 076°11'516.6
2019-Feb-23 04:44N 37°42' W 076°11'1715.7
2019-Feb-23 03:37N 37°25' W 076°05'15514.6
2019-Feb-22 17:00N 35°00' W 075°00'3912.9 020 / 291027.1 18.013.028.0
2019-Feb-22 14:00N 34°30' W 075°30'3417.2 050 / 281024.5 17.013.728.0
2019-Feb-22 12:00N 34°06' W 076°00'3131.2 020 / 201023.8 22.019.028.0
2019-Feb-22 11:00N 33°42' W 076°24'3511.6 330 / 121023.3 23.021.628.0
2019-Feb-22 08:00N 33°18' W 076°54'2727.0 270 / 61023.0 23.021.630.0
2019-Feb-22 07:00N 33°00' W 077°18'20814.9 250 / 51024.0 23.021.630.0
2019-Feb-21 17:00N 30°12' W 079°42'5418.0 160 / 111024.6 24.022.630.0
2019-Feb-21 14:00N 29°18' W 079°42'3618.0 160 / 181024.6 24.022.630.0
2019-Feb-21 12:00N 28°42' W 079°42'2424.0 160 / 201022.8 24.022.630.0
2019-Feb-21 11:00N 28°18' W 079°42'1818.0 140 / 191022.3 24.022.630.0
2019-Feb-21 10:00N 28°00' W 079°42'2412.0 150 / 221022.2 24.022.630.0
2019-Feb-21 08:00N 27°36' W 079°42'3015.0 130 / 211022.5 25.023.630.0
2019-Feb-21 06:00N 27°06' W 079°42'3517.0 140 / 251021.9 25.023.630.0
2019-Feb-21 03:58N 26°31' W 079°44'816.8
2019-Feb-21 03:30N 26°24' W 079°44'917.2
2019-Feb-21 03:00N 26°15' W 079°45'816.6
2019-Feb-21 02:30N 26°08' W 079°49'816.6
2019-Feb-21 02:00N 26°01' W 079°54'816.7
2019-Feb-21 01:30N 25°54' W 079°59'816.3
2019-Feb-21 01:00N 25°47' W 080°04'4 8.1
2019-Feb-21 00:30N 25°46' W 080°09'2 3.5
2019-Feb-21 00:00N 25°47' W 080°10'0 0.0
2019-Feb-20 23:30N 25°47' W 080°10'0 0.0
2019-Feb-20 23:00N 25°47' W 080°10'0 0.0
2019-Feb-20 22:30N 25°47' W 080°10'0 0.0
2019-Feb-20 22:00N 25°47' W 080°10'0 0.0
2019-Feb-20 21:30N 25°47' W 080°10'0 0.0
2019-Feb-20 21:00N 25°47' W 080°10'0 0.0
2019-Feb-20 20:30N 25°47' W 080°10'0 0.0
2019-Feb-20 20:00N 25°47' W 080°10'0 0.0
2019-Feb-20 19:30N 25°47' W 080°10'0 0.0
2019-Feb-20 19:00N 25°47' W 080°10'0 0.0
2019-Feb-20 18:30N 25°47' W 080°10'0 0.0
2019-Feb-20 18:00N 25°47' W 080°10'0 0.0
2019-Feb-20 17:27N 25°47' W 080°10'0 0.0
2019-Feb-20 17:00N 25°47' W 080°10'0 0.0
2019-Feb-20 16:30N 25°47' W 080°10'0 0.0
2019-Feb-20 16:00N 25°47' W 080°10'0 0.0
2019-Feb-20 15:30N 25°47' W 080°10'0 0.0
2019-Feb-20 15:00N 25°47' W 080°10'0 0.0
2019-Feb-20 14:30N 25°47' W 080°10'0 0.0
2019-Feb-20 14:00N 25°47' W 080°10'0 0.0
2019-Feb-20 13:30N 25°47' W 080°10'0 0.0
2019-Feb-20 13:00N 25°47' W 080°10'0 0.0
2019-Feb-20 12:30N 25°47' W 080°10'0 0.4
2019-Feb-20 12:01N 25°47' W 080°11'2 3.0
2019-Feb-20 11:30N 25°46' W 080°09'611.7
2019-Feb-20 11:00N 25°47' W 080°03'5 9.4
2019-Feb-20 10:30N 25°49' W 079°58'814.9
2019-Feb-20 10:00N 25°52' W 079°50'612.1
2019-Feb-20 09:30N 25°54' W 079°44'4417.3
2019-Feb-20 07:00N 26°12' W 079°00'117 6.5 100 / 221023.7 24.022.628.0
2019-Feb-19 13:00N 25°00' W 077°18'30 7.6 090 / 151022.9 24.022.627.0
2019-Feb-19 09:00N 25°30' W 077°24'96 4.9 070 / 171024.1 24.022.629.0
2019-Feb-18 13:15N 26°31' W 078°46'4012.3
2019-Feb-18 10:00N 27°00' W 079°18'16 8.0 180 / 201019.8 25.023.627.0
2019-Feb-18 08:00N 27°12' W 079°30'2424.1 170 / 191019.5 25.023.630.0
2019-Feb-18 07:00N 27°30' W 079°48'66 3.6 170 / 181019.5 25.023.627.0
2019-Feb-17 13:00N 28°30' W 080°18'1212.0 190 / 61018.5 18.016.420.0
2019-Feb-17 12:00N 28°42' W 080°18'4214.1 220 / 101018.0 18.016.419.0
2019-Feb-17 09:00N 29°24' W 080°24'20317.6 250 / 141016.0 19.017.525.0
2019-Feb-16 21:27N 32°45' W 079°52'3 7.0
2019-Feb-16 20:59N 32°47' W 079°55'0 0.0
2019-Feb-16 20:29N 32°47' W 079°55'0 0.0
2019-Feb-16 19:44N 32°47' W 079°55'0 0.0
2019-Feb-16 19:26N 32°47' W 079°55'0 0.0
2019-Feb-16 18:44N 32°47' W 079°55'0 0.0
2019-Feb-16 18:20N 32°47' W 079°55'0 0.0
2019-Feb-16 17:50N 32°47' W 079°55'0 0.0
2019-Feb-16 17:29N 32°47' W 079°55'0 0.0
2019-Feb-16 16:59N 32°47' W 079°55'0 0.0
2019-Feb-16 16:29N 32°47' W 079°55'0 0.0
2019-Feb-16 15:59N 32°47' W 079°55'0 0.0
2019-Feb-16 15:29N 32°47' W 079°55'0 0.0
2019-Feb-16 14:59N 32°47' W 079°55'0 0.0
2019-Feb-16 14:23N 32°47' W 079°55'0 0.0
2019-Feb-16 13:59N 32°47' W 079°55'0 0.0
2019-Feb-16 13:29N 32°47' W 079°55'0 0.0
2019-Feb-16 12:50N 32°47' W 079°55'0 0.0
2019-Feb-16 12:29N 32°47' W 079°55'0 0.1
2019-Feb-16 12:00N 32°47' W 079°55'1 2.7
2019-Feb-16 11:30N 32°47' W 079°54'4211.9
2019-Feb-16 08:00N 32°36' W 079°06'14314.3 210 / 161011.9 18.014.822.0
2019-Feb-15 22:00N 33°54' W 076°42'8016.1 240 / 171013.2 19.012.424.0
2019-Feb-15 17:00N 34°48' W 075°30'5213.0 220 / 251014.7 21.019.525.0
2019-Feb-15 13:00N 35°36' W 075°06'1918.6 240 / 121018.7 15.013.310.0
2019-Feb-15 12:00N 35°54' W 075°12'2020.4 230 / 121018.2 10.0 6.110.0
2019-Feb-15 11:00N 36°12' W 075°24'1918.6 230 / 241017.6 11.0 9.212.0
2019-Feb-15 10:00N 36°30' W 075°30'4611.5 220 / 161017.1 10.0 6.110.0
2019-Feb-15 06:00N 37°06' W 076°06'4917.2 200 / 171017.2 9.0 7.110.0
2019-Feb-15 03:08N 37°55' W 076°10'317.4
2019-Feb-15 02:59N 37°58' W 076°11'917.2
2019-Feb-15 02:28N 38°06' W 076°13'817.3
2019-Feb-15 02:00N 38°14' W 076°15'2516.9
2019-Feb-15 00:33N 38°37' W 076°25'1217.4
2019-Feb-14 23:51N 38°50' W 076°24'617.8
2019-Feb-14 23:30N 38°56' W 076°23'1115.5
2019-Feb-14 22:48N 39°07' W 076°24'312.0
2019-Feb-14 22:31N 39°10' W 076°25'5 9.3
2019-Feb-14 22:00N 39°12' W 076°31'4 8.5
2019-Feb-14 21:31N 39°15' W 076°34'1 2.7
2019-Feb-14 21:01N 39°16' W 076°36'0 0.0
2019-Feb-14 19:44N 39°16' W 076°36'0 0.0
2019-Feb-14 19:26N 39°16' W 076°36'0 0.0
2019-Feb-14 18:56N 39°16' W 076°36'0 0.0
2019-Feb-14 18:26N 39°16' W 076°36'0 0.0
2019-Feb-14 17:56N 39°16' W 076°36'0 0.0
2019-Feb-14 17:26N 39°16' W 076°36'0 0.0
2019-Feb-14 16:56N 39°16' W 076°36'0 0.0
2019-Feb-14 16:26N 39°16' W 076°36'4 8.7
2019-Feb-14 16:00N 39°12' W 076°36'464.4 250 / 51022.3 4.0 1.7 8.0
2019-Feb-14 15:56N 39°16' W 076°36'0 0.0
2019-Feb-14 15:26N 39°16' W 076°36'0 0.0
2019-Feb-14 14:56N 39°16' W 076°36'0 0.0
2019-Feb-14 14:20N 39°16' W 076°36'0 0.0
2019-Feb-14 13:56N 39°16' W 076°36'0 0.0
2019-Feb-14 13:26N 39°16' W 076°36'0 0.0
2019-Feb-14 13:00N 39°16' W 076°36'0 0.0
2019-Feb-14 12:26N 39°16' W 076°36'0 0.0
2019-Feb-14 11:53N 39°16' W 076°36'1 2.8
2019-Feb-14 11:30N 39°15' W 076°35'4 8.4
2019-Feb-14 11:01N 39°12' W 076°31'510.1
2019-Feb-14 10:29N 39°10' W 076°25'1122.4
2019-Feb-14 10:00N 39°00' W 076°18'5531.2 270 / 81020.8 4.0 1.7 8.0
2019-Feb-14 09:59N 39°03' W 076°23'715.4
2019-Feb-14 09:31N 38°56' W 076°23'917.7
2019-Feb-14 09:00N 38°47' W 076°25'1111.0
2019-Feb-14 08:00N 38°36' W 076°24'2625.8 250 / 131020.6 4.0-0.9 8.0
2019-Feb-14 07:00N 38°12' W 076°12'4 7.2 190 / 91019.5 5.0 2.8 9.0
2019-Feb-14 06:30N 38°09' W 076°14'1631.7
2019-Feb-14 06:00N 37°54' W 076°06'526.4 190 / 21017.9 6.0 3.9 9.0
2019-Feb-14 05:48N 37°57' W 076°10'9313.7
2019-Feb-13 23:00N 36°30' W 075°30'   280 / 251014.4 10.0 8.110.0
Track history (hours):
 
Tides and Currents Weather Stations Pressure Air Temp Water Temp Dewpoint Dewpoint Depression Visibility Wind Speed Wind Dir Waves Ship Positions

Grandeur Of The Seas

Operator: Royal Caribbean Cruises Ltd

Last reported at 2019-Feb-23 17:18 UTC. Time now 2019-Feb-23 18:04 UTC.
Position N 39°16' W 076°36'.

Type: Passenger vessel. MMSI: 311315000.

Date/timePositionNaut miles runAvg speedWind from/ knotsBaromVisibWave heightAir tempDewpointWater temp
2019-Feb-23 17:18N 39°16' W 076°36'0 0.0
2019-Feb-23 16:44N 39°16' W 076°36'0 0.0
2019-Feb-23 16:12N 39°16' W 076°36'0 0.0
2019-Feb-23 15:38N 39°16' W 076°36'0 0.0
2019-Feb-23 15:26N 39°16' W 076°36'0 0.0
2019-Feb-23 14:12N 39°16' W 076°36'0 0.0
2019-Feb-23 13:50N 39°16' W 076°36'0 0.0
2019-Feb-23 13:26N 39°16' W 076°36'0 0.0
2019-Feb-23 12:56N 39°16' W 076°36'0 0.0
2019-Feb-23 12:18N 39°16' W 076°36'0 0.0
2019-Feb-23 12:00N 39°16' W 076°36'4551.3
2019-Feb-23 12:00N 39°12' W 076°36'3 7.2 030 / 31034.4 4.0 1.7 9.0
2019-Feb-23 11:31N 39°15' W 076°35'3 6.7
2019-Feb-23 11:00N 39°13' W 076°32'5 9.5
2019-Feb-23 10:31N 39°11' W 076°27'611.2
2019-Feb-23 10:00N 39°06' W 076°24'713.7
2019-Feb-23 09:29N 38°59' W 076°23'816.6
2019-Feb-23 09:00N 38°51' W 076°24'9544.5
2019-Feb-23 09:00N 38°42' W 076°24'1818.0 060 / 111032.5 5.0 0.3 9.0
2019-Feb-23 08:00N 38°24' W 076°24'1610.4 040 / 81032.8 5.0 2.8 9.0
2019-Feb-23 06:27N 38°10' W 076°14'1737.3
2019-Feb-23 06:00N 37°54' W 076°06'9176.1 170 / 81033.4 5.0 2.810.0
2019-Feb-23 05:56N 38°02' W 076°13'1515.8
2019-Feb-23 05:01N 37°47' W 076°11'516.6
2019-Feb-23 04:44N 37°42' W 076°11'1715.7
2019-Feb-23 03:37N 37°25' W 076°05'15514.6
2019-Feb-22 17:00N 35°00' W 075°00'3912.9 020 / 291027.1 18.013.028.0
2019-Feb-22 14:00N 34°30' W 075°30'3417.2 050 / 281024.5 17.013.728.0
2019-Feb-22 12:00N 34°06' W 076°00'3131.2 020 / 201023.8 22.019.028.0
2019-Feb-22 11:00N 33°42' W 076°24'3511.6 330 / 121023.3 23.021.628.0
2019-Feb-22 08:00N 33°18' W 076°54'2727.0 270 / 61023.0 23.021.630.0
2019-Feb-22 07:00N 33°00' W 077°18'20814.9 250 / 51024.0 23.021.630.0
2019-Feb-21 17:00N 30°12' W 079°42'5418.0 160 / 111024.6 24.022.630.0
2019-Feb-21 14:00N 29°18' W 079°42'3618.0 160 / 181024.6 24.022.630.0
2019-Feb-21 12:00N 28°42' W 079°42'2424.0 160 / 201022.8 24.022.630.0
2019-Feb-21 11:00N 28°18' W 079°42'1818.0 140 / 191022.3 24.022.630.0
2019-Feb-21 10:00N 28°00' W 079°42'2412.0 150 / 221022.2 24.022.630.0
2019-Feb-21 08:00N 27°36' W 079°42'3015.0 130 / 211022.5 25.023.630.0
2019-Feb-21 06:00N 27°06' W 079°42'3517.0 140 / 251021.9 25.023.630.0
2019-Feb-21 03:58N 26°31' W 079°44'816.8
2019-Feb-21 03:30N 26°24' W 079°44'917.2
2019-Feb-21 03:00N 26°15' W 079°45'816.6
2019-Feb-21 02:30N 26°08' W 079°49'816.6
2019-Feb-21 02:00N 26°01' W 079°54'816.7
2019-Feb-21 01:30N 25°54' W 079°59'816.3
2019-Feb-21 01:00N 25°47' W 080°04'4 8.1
2019-Feb-21 00:30N 25°46' W 080°09'2 3.5
2019-Feb-21 00:00N 25°47' W 080°10'0 0.0
2019-Feb-20 23:30N 25°47' W 080°10'0 0.0
2019-Feb-20 23:00N 25°47' W 080°10'0 0.0
2019-Feb-20 22:30N 25°47' W 080°10'0 0.0
2019-Feb-20 22:00N 25°47' W 080°10'0 0.0
2019-Feb-20 21:30N 25°47' W 080°10'0 0.0
2019-Feb-20 21:00N 25°47' W 080°10'0 0.0
2019-Feb-20 20:30N 25°47' W 080°10'0 0.0
2019-Feb-20 20:00N 25°47' W 080°10'0 0.0
2019-Feb-20 19:30N 25°47' W 080°10'0 0.0
2019-Feb-20 19:00N 25°47' W 080°10'0 0.0
2019-Feb-20 18:30N 25°47' W 080°10'0 0.0
2019-Feb-20 18:00N 25°47' W 080°10'0 0.0
2019-Feb-20 17:27N 25°47' W 080°10'0 0.0
2019-Feb-20 17:00N 25°47' W 080°10'0 0.0
2019-Feb-20 16:30N 25°47' W 080°10'0 0.0
2019-Feb-20 16:00N 25°47' W 080°10'0 0.0
2019-Feb-20 15:30N 25°47' W 080°10'0 0.0
2019-Feb-20 15:00N 25°47' W 080°10'0 0.0
2019-Feb-20 14:30N 25°47' W 080°10'0 0.0
2019-Feb-20 14:00N 25°47' W 080°10'0 0.0
2019-Feb-20 13:30N 25°47' W 080°10'0 0.0
2019-Feb-20 13:00N 25°47' W 080°10'0 0.0
2019-Feb-20 12:30N 25°47' W 080°10'0 0.4
2019-Feb-20 12:01N 25°47' W 080°11'2 3.0
2019-Feb-20 11:30N 25°46' W 080°09'611.7
2019-Feb-20 11:00N 25°47' W 080°03'5 9.4
2019-Feb-20 10:30N 25°49' W 079°58'814.9
2019-Feb-20 10:00N 25°52' W 079°50'612.1
2019-Feb-20 09:30N 25°54' W 079°44'4417.3
2019-Feb-20 07:00N 26°12' W 079°00'117 6.5 100 / 221023.7 24.022.628.0
2019-Feb-19 13:00N 25°00' W 077°18'30 7.6 090 / 151022.9 24.022.627.0
2019-Feb-19 09:00N 25°30' W 077°24'96 4.9 070 / 171024.1 24.022.629.0
2019-Feb-18 13:15N 26°31' W 078°46'4012.3
2019-Feb-18 10:00N 27°00' W 079°18'16 8.0 180 / 201019.8 25.023.627.0
2019-Feb-18 08:00N 27°12' W 079°30'2424.1 170 / 191019.5 25.023.630.0
2019-Feb-18 07:00N 27°30' W 079°48'66 3.6 170 / 181019.5 25.023.627.0
2019-Feb-17 13:00N 28°30' W 080°18'1212.0 190 / 61018.5 18.016.420.0
2019-Feb-17 12:00N 28°42' W 080°18'4214.1 220 / 101018.0 18.016.419.0
2019-Feb-17 09:00N 29°24' W 080°24'20317.6 250 / 141016.0 19.017.525.0
2019-Feb-16 21:27N 32°45' W 079°52'3 7.0
2019-Feb-16 20:59N 32°47' W 079°55'0 0.0
2019-Feb-16 20:29N 32°47' W 079°55'0 0.0
2019-Feb-16 19:44N 32°47' W 079°55'0 0.0
2019-Feb-16 19:26N 32°47' W 079°55'0 0.0
2019-Feb-16 18:44N 32°47' W 079°55'0 0.0
2019-Feb-16 18:20N 32°47' W 079°55'0 0.0
2019-Feb-16 17:50N 32°47' W 079°55'0 0.0
2019-Feb-16 17:29N 32°47' W 079°55'0 0.0
2019-Feb-16 16:59N 32°47' W 079°55'0 0.0
2019-Feb-16 16:29N 32°47' W 079°55'0 0.0
2019-Feb-16 15:59N 32°47' W 079°55'0 0.0
2019-Feb-16 15:29N 32°47' W 079°55'0 0.0
2019-Feb-16 14:59N 32°47' W 079°55'0 0.0
2019-Feb-16 14:23N 32°47' W 079°55'0 0.0
2019-Feb-16 13:59N 32°47' W 079°55'0 0.0
2019-Feb-16 13:29N 32°47' W 079°55'0 0.0
2019-Feb-16 12:50N 32°47' W 079°55'0 0.0
2019-Feb-16 12:29N 32°47' W 079°55'0 0.1
2019-Feb-16 12:00N 32°47' W 079°55'1 2.7
2019-Feb-16 11:30N 32°47' W 079°54'4211.9
2019-Feb-16 08:00N 32°36' W 079°06'14314.3 210 / 161011.9 18.014.822.0
2019-Feb-15 22:00N 33°54' W 076°42'8016.1 240 / 171013.2 19.012.424.0
2019-Feb-15 17:00N 34°48' W 075°30'5213.0 220 / 251014.7 21.019.525.0
2019-Feb-15 13:00N 35°36' W 075°06'1918.6 240 / 121018.7 15.013.310.0
2019-Feb-15 12:00N 35°54' W 075°12'2020.4 230 / 121018.2 10.0 6.110.0
2019-Feb-15 11:00N 36°12' W 075°24'1918.6 230 / 241017.6 11.0 9.212.0
2019-Feb-15 10:00N 36°30' W 075°30'4611.5 220 / 161017.1 10.0 6.110.0
2019-Feb-15 06:00N 37°06' W 076°06'4917.2 200 / 171017.2 9.0 7.110.0
2019-Feb-15 03:08N 37°55' W 076°10'317.4
2019-Feb-15 02:59N 37°58' W 076°11'917.2
2019-Feb-15 02:28N 38°06' W 076°13'817.3
2019-Feb-15 02:00N 38°14' W 076°15'2516.9
2019-Feb-15 00:33N 38°37' W 076°25'1217.4
2019-Feb-14 23:51N 38°50' W 076°24'617.8
2019-Feb-14 23:30N 38°56' W 076°23'1115.5
2019-Feb-14 22:48N 39°07' W 076°24'312.0
2019-Feb-14 22:31N 39°10' W 076°25'5 9.3
2019-Feb-14 22:00N 39°12' W 076°31'4 8.5
2019-Feb-14 21:31N 39°15' W 076°34'1 2.7
2019-Feb-14 21:01N 39°16' W 076°36'0 0.0
2019-Feb-14 19:44N 39°16' W 076°36'0 0.0
2019-Feb-14 19:26N 39°16' W 076°36'0 0.0
2019-Feb-14 18:56N 39°16' W 076°36'0 0.0
2019-Feb-14 18:26N 39°16' W 076°36'0 0.0
2019-Feb-14 17:56N 39°16' W 076°36'0 0.0
2019-Feb-14 17:26N 39°16' W 076°36'0 0.0
2019-Feb-14 16:56N 39°16' W 076°36'0 0.0
2019-Feb-14 16:26N 39°16' W 076°36'4 8.7
2019-Feb-14 16:00N 39°12' W 076°36'464.4 250 / 51022.3 4.0 1.7 8.0
2019-Feb-14 15:56N 39°16' W 076°36'0 0.0
2019-Feb-14 15:26N 39°16' W 076°36'0 0.0
2019-Feb-14 14:56N 39°16' W 076°36'0 0.0
2019-Feb-14 14:20N 39°16' W 076°36'0 0.0
2019-Feb-14 13:56N 39°16' W 076°36'0 0.0
2019-Feb-14 13:26N 39°16' W 076°36'0 0.0
2019-Feb-14 13:00N 39°16' W 076°36'0 0.0
2019-Feb-14 12:26N 39°16' W 076°36'0 0.0
2019-Feb-14 11:53N 39°16' W 076°36'1 2.8
2019-Feb-14 11:30N 39°15' W 076°35'4 8.4
2019-Feb-14 11:01N 39°12' W 076°31'510.1
2019-Feb-14 10:29N 39°10' W 076°25'1122.4
2019-Feb-14 10:00N 39°00' W 076°18'5531.2 270 / 81020.8 4.0 1.7 8.0
2019-Feb-14 09:59N 39°03' W 076°23'715.4
2019-Feb-14 09:31N 38°56' W 076°23'917.7
2019-Feb-14 09:00N 38°47' W 076°25'1111.0
2019-Feb-14 08:00N 38°36' W 076°24'2625.8 250 / 131020.6 4.0-0.9 8.0
2019-Feb-14 07:00N 38°12' W 076°12'4 7.2 190 / 91019.5 5.0 2.8 9.0
2019-Feb-14 06:30N 38°09' W 076°14'1631.7
2019-Feb-14 06:00N 37°54' W 076°06'526.4 190 / 21017.9 6.0 3.9 9.0
2019-Feb-14 05:48N 37°57' W 076°10'9313.7
2019-Feb-13 23:00N 36°30' W 075°30'   280 / 251014.4 10.0 8.110.0

Dump ship's entire track history